sensor_id;sensor_type;location;lat;lon;timestamp;pressure;altitude;pressure_sealevel;temperature;humidity
31873;BME280;22407;42.820;23.374;2023-12-20T00:00:13;96205.66;;;-4.11;98.90
31873;BME280;22407;42.820;23.374;2023-12-20T00:05:03;96183.88;;;-4.13;99.45
31873;BME280;22407;42.820;23.374;2023-12-20T00:07:28;96182.66;;;-3.91;98.61
31873;BME280;22407;42.820;23.374;2023-12-20T00:09:54;96173.91;;;-3.91;98.61
31873;BME280;22407;42.820;23.374;2023-12-20T00:12:19;96174.72;;;-3.91;99.61
31873;BME280;22407;42.820;23.374;2023-12-20T00:14:45;96178.78;;;-3.75;99.64
31873;BME280;22407;42.820;23.374;2023-12-20T00:20:42;96169.84;;;-3.74;100.00
31873;BME280;22407;42.820;23.374;2023-12-20T00:23:08;96166.97;;;-3.86;100.00
31873;BME280;22407;42.820;23.374;2023-12-20T00:25:34;96159.03;;;-3.66;100.00
31873;BME280;22407;42.820;23.374;2023-12-20T00:28:00;96151.50;;;-3.76;100.00
31873;BME280;22407;42.820;23.374;2023-12-20T00:30:26;96158.22;;;-3.73;100.00
31873;BME280;22407;42.820;23.374;2023-12-20T00:32:51;96145.38;;;-3.63;100.00
31873;BME280;22407;42.820;23.374;2023-12-20T00:35:18;96149.66;;;-3.69;100.00
31873;BME280;22407;42.820;23.374;2023-12-20T00:37:44;96133.38;;;-3.66;100.00
31873;BME280;22407;42.820;23.374;2023-12-20T00:40:10;96154.34;;;-3.71;100.00
31873;BME280;22407;42.820;23.374;2023-12-20T00:42:35;96153.81;;;-4.18;100.00
31873;BME280;22407;42.820;23.374;2023-12-20T00:45:01;96154.19;;;-4.02;100.00
31873;BME280;22407;42.820;23.374;2023-12-20T00:47:28;96141.16;;;-3.77;100.00
31873;BME280;22407;42.820;23.374;2023-12-20T00:49:53;96149.88;;;-3.83;100.00
31873;BME280;22407;42.820;23.374;2023-12-20T00:52:19;96149.94;;;-4.16;100.00
31873;BME280;22407;42.820;23.374;2023-12-20T00:54:45;96150.34;;;-4.31;100.00
31873;BME280;22407;42.820;23.374;2023-12-20T00:57:10;96159.88;;;-4.18;100.00
31873;BME280;22407;42.820;23.374;2023-12-20T00:59:36;96139.75;;;-4.19;100.00
31873;BME280;22407;42.820;23.374;2023-12-20T01:02:02;96140.16;;;-4.02;100.00
31873;BME280;22407;42.820;23.374;2023-12-20T01:04:27;96129.97;;;-3.99;100.00
31873;BME280;22407;42.820;23.374;2023-12-20T01:06:53;96130.81;;;-3.92;100.00
31873;BME280;22407;42.820;23.374;2023-12-20T01:09:19;96123.44;;;-3.77;100.00
31873;BME280;22407;42.820;23.374;2023-12-20T01:11:44;96119.25;;;-3.41;100.00
31873;BME280;22407;42.820;23.374;2023-12-20T01:14:12;96121.00;;;-3.72;100.00
31873;BME280;22407;42.820;23.374;2023-12-20T01:16:37;96121.88;;;-4.04;100.00
31873;BME280;22407;42.820;23.374;2023-12-20T01:19:03;96122.50;;;-4.08;100.00
31873;BME280;22407;42.820;23.374;2023-12-20T01:21:29;96110.03;;;-3.82;100.00
31873;BME280;22407;42.820;23.374;2023-12-20T01:23:55;96107.66;;;-4.16;100.00
31873;BME280;22407;42.820;23.374;2023-12-20T01:26:20;96111.91;;;-4.15;100.00
31873;BME280;22407;42.820;23.374;2023-12-20T01:28:46;96101.09;;;-3.81;100.00
31873;BME280;22407;42.820;23.374;2023-12-20T01:31:11;96100.22;;;-3.62;100.00
31873;BME280;22407;42.820;23.374;2023-12-20T01:33:37;96092.97;;;-3.92;100.00
31873;BME280;22407;42.820;23.374;2023-12-20T01:36:04;96096.59;;;-3.80;100.00
31873;BME280;22407;42.820;23.374;2023-12-20T01:38:29;96091.53;;;-3.82;100.00
31873;BME280;22407;42.820;23.374;2023-12-20T01:40:55;96077.31;;;-3.87;100.00
31873;BME280;22407;42.820;23.374;2023-12-20T01:43:20;96076.47;;;-3.81;100.00
31873;BME280;22407;42.820;23.374;2023-12-20T01:45:47;96066.53;;;-3.92;100.00
31873;BME280;22407;42.820;23.374;2023-12-20T01:48:12;96085.00;;;-3.73;100.00
31873;BME280;22407;42.820;23.374;2023-12-20T01:50:39;96073.53;;;-3.60;100.00
31873;BME280;22407;42.820;23.374;2023-12-20T01:53:07;96071.16;;;-3.75;100.00
31873;BME280;22407;42.820;23.374;2023-12-20T01:55:34;96066.81;;;-3.56;100.00
31873;BME280;22407;42.820;23.374;2023-12-20T01:58:02;96047.34;;;-3.68;100.00
31873;BME280;22407;42.820;23.374;2023-12-20T02:00:29;96062.97;;;-3.60;100.00
31873;BME280;22407;42.820;23.374;2023-12-20T02:02:55;96049.31;;;-3.57;100.00
31873;BME280;22407;42.820;23.374;2023-12-20T02:05:21;96054.38;;;-3.49;100.00
31873;BME280;22407;42.820;23.374;2023-12-20T02:07:47;96052.53;;;-3.49;100.00
31873;BME280;22407;42.820;23.374;2023-12-20T02:10:13;96041.56;;;-3.52;100.00
31873;BME280;22407;42.820;23.374;2023-12-20T02:12:39;96051.31;;;-3.46;100.00
31873;BME280;22407;42.820;23.374;2023-12-20T02:15:07;96035.25;;;-3.51;100.00
31873;BME280;22407;42.820;23.374;2023-12-20T02:17:33;96042.91;;;-3.37;100.00
31873;BME280;22407;42.820;23.374;2023-12-20T02:19:59;96041.53;;;-3.46;100.00
31873;BME280;22407;42.820;23.374;2023-12-20T02:22:24;96034.34;;;-3.70;100.00
31873;BME280;22407;42.820;23.374;2023-12-20T02:24:50;96030.22;;;-3.66;100.00
31873;BME280;22407;42.820;23.374;2023-12-20T02:27:17;96013.69;;;-3.55;100.00
31873;BME280;22407;42.820;23.374;2023-12-20T02:29:46;96028.84;;;-3.75;100.00
31873;BME280;22407;42.820;23.374;2023-12-20T02:32:12;96024.66;;;-3.95;100.00
31873;BME280;22407;42.820;23.374;2023-12-20T02:34:38;96026.44;;;-3.83;100.00
31873;BME280;22407;42.820;23.374;2023-12-20T02:37:03;96020.03;;;-3.62;100.00
31873;BME280;22407;42.820;23.374;2023-12-20T02:39:30;96030.22;;;-3.66;100.00
31873;BME280;22407;42.820;23.374;2023-12-20T02:41:55;96025.47;;;-3.95;100.00
31873;BME280;22407;42.820;23.374;2023-12-20T02:44:21;96022.56;;;-3.87;100.00
31873;BME280;22407;42.820;23.374;2023-12-20T02:46:47;96023.16;;;-3.72;100.00
31873;BME280;22407;42.820;23.374;2023-12-20T02:49:12;96010.75;;;-3.78;100.00
31873;BME280;22407;42.820;23.374;2023-12-20T02:51:38;96013.53;;;-3.60;100.00
31873;BME280;22407;42.820;23.374;2023-12-20T02:54:04;96011.47;;;-3.58;100.00
31873;BME280;22407;42.820;23.374;2023-12-20T02:56:30;96009.34;;;-3.80;100.00
31873;BME280;22407;42.820;23.374;2023-12-20T02:58:55;96013.22;;;-3.83;100.00
31873;BME280;22407;42.820;23.374;2023-12-20T03:01:21;96012.38;;;-3.83;100.00
31873;BME280;22407;42.820;23.374;2023-12-20T03:03:46;96013.28;;;-3.52;100.00
31873;BME280;22407;42.820;23.374;2023-12-20T03:06:17;96004.25;;;-3.75;100.00
31873;BME280;22407;42.820;23.374;2023-12-20T03:08:44;96014.03;;;-3.89;100.00
31873;BME280;22407;42.820;23.374;2023-12-20T03:11:09;96014.03;;;-3.89;100.00
31873;BME280;22407;42.820;23.374;2023-12-20T03:13:35;96008.81;;;-3.58;100.00
31873;BME280;22407;42.820;23.374;2023-12-20T03:16:00;96010.44;;;-4.01;100.00
31873;BME280;22407;42.820;23.374;2023-12-20T03:18:26;96005.97;;;-4.07;100.00
31873;BME280;22407;42.820;23.374;2023-12-20T03:20:53;96010.09;;;-4.24;100.00
31873;BME280;22407;42.820;23.374;2023-12-20T03:23:19;96002.44;;;-4.44;100.00
31873;BME280;22407;42.820;23.374;2023-12-20T03:25:44;96004.44;;;-4.40;100.00
31873;BME280;22407;42.820;23.374;2023-12-20T03:28:09;95993.63;;;-4.19;100.00
31873;BME280;22407;42.820;23.374;2023-12-20T03:30:35;96001.78;;;-3.77;100.00
31873;BME280;22407;42.820;23.374;2023-12-20T03:33:00;95998.63;;;-3.92;100.00
31873;BME280;22407;42.820;23.374;2023-12-20T03:35:26;95995.00;;;-4.04;100.00
31873;BME280;22407;42.820;23.374;2023-12-20T03:37:51;95996.63;;;-4.03;100.00
31873;BME280;22407;42.820;23.374;2023-12-20T03:40:17;95984.66;;;-4.05;100.00
31873;BME280;22407;42.820;23.374;2023-12-20T03:42:42;95988.69;;;-4.03;100.00
31873;BME280;22407;42.820;23.374;2023-12-20T03:45:08;95988.81;;;-3.85;100.00
31873;BME280;22407;42.820;23.374;2023-12-20T03:47:34;95993.19;;;-4.10;100.00
31873;BME280;22407;42.820;23.374;2023-12-20T03:50:00;95988.50;;;-4.08;100.00
31873;BME280;22407;42.820;23.374;2023-12-20T03:52:25;95989.09;;;-4.06;100.00
31873;BME280;22407;42.820;23.374;2023-12-20T03:54:50;95975.47;;;-4.03;100.00
31873;BME280;22407;42.820;23.374;2023-12-20T03:57:16;95975.22;;;-3.88;100.00
31873;BME280;22407;42.820;23.374;2023-12-20T03:59:41;95975.09;;;-3.69;100.00
31873;BME280;22407;42.820;23.374;2023-12-20T04:02:07;95979.81;;;-3.71;100.00
31873;BME280;22407;42.820;23.374;2023-12-20T04:04:32;95974.94;;;-3.74;100.00
31873;BME280;22407;42.820;23.374;2023-12-20T04:06:58;95981.16;;;-3.99;100.00
31873;BME280;22407;42.820;23.374;2023-12-20T04:09:23;95974.84;;;-3.98;100.00
31873;BME280;22407;42.820;23.374;2023-12-20T04:11:49;95960.88;;;-4.12;100.00
31873;BME280;22407;42.820;23.374;2023-12-20T04:14:14;95969.22;;;-4.15;100.00
31873;BME280;22407;42.820;23.374;2023-12-20T04:16:40;95956.97;;;-4.03;100.00
31873;BME280;22407;42.820;23.374;2023-12-20T04:19:05;95950.56;;;-3.82;100.00
31873;BME280;22407;42.820;23.374;2023-12-20T04:21:31;95958.09;;;-3.86;100.00
31873;BME280;22407;42.820;23.374;2023-12-20T04:23:56;95951.81;;;-3.91;100.00
31873;BME280;22407;42.820;23.374;2023-12-20T04:26:22;95949.78;;;-3.89;100.00
31873;BME280;22407;42.820;23.374;2023-12-20T04:28:47;95944.59;;;-3.71;100.00
31873;BME280;22407;42.820;23.374;2023-12-20T04:31:13;95951.81;;;-3.91;100.00
31873;BME280;22407;42.820;23.374;2023-12-20T04:33:38;95949.91;;;-3.71;100.00
31873;BME280;22407;42.820;23.374;2023-12-20T04:36:04;95943.75;;;-3.96;100.00
31873;BME280;22407;42.820;23.374;2023-12-20T04:38:30;95950.16;;;-3.79;100.00
31873;BME280;22407;42.820;23.374;2023-12-20T04:40:55;95936.72;;;-3.84;100.00
31873;BME280;22407;42.820;23.374;2023-12-20T04:43:21;95939.94;;;-3.76;100.00
31873;BME280;22407;42.820;23.374;2023-12-20T04:45:46;95952.09;;;-3.62;100.00
31873;BME280;22407;42.820;23.374;2023-12-20T04:48:12;95944.94;;;-3.61;100.00
31873;BME280;22407;42.820;23.374;2023-12-20T04:50:38;95931.22;;;-3.76;100.00
31873;BME280;22407;42.820;23.374;2023-12-20T04:53:03;95933.78;;;-3.63;100.00
31873;BME280;22407;42.820;23.374;2023-12-20T04:55:29;95939.53;;;-3.73;100.00
31873;BME280;22407;42.820;23.374;2023-12-20T04:57:54;95939.28;;;-3.65;100.00
31873;BME280;22407;42.820;23.374;2023-12-20T05:00:20;95944.44;;;-3.76;100.00
31873;BME280;22407;42.820;23.374;2023-12-20T05:02:45;95953.47;;;-3.97;100.00
31873;BME280;22407;42.820;23.374;2023-12-20T05:05:11;95930.59;;;-4.16;100.00
31873;BME280;22407;42.820;23.374;2023-12-20T05:07:36;95929.69;;;-3.97;100.00
31873;BME280;22407;42.820;23.374;2023-12-20T05:10:03;95926.06;;;-3.65;100.00
31873;BME280;22407;42.820;23.374;2023-12-20T05:12:30;95925.97;;;-3.83;100.00
31873;BME280;22407;42.820;23.374;2023-12-20T05:14:56;95928.25;;;-3.93;100.00
31873;BME280;22407;42.820;23.374;2023-12-20T05:17:21;95930.72;;;-3.98;100.00
31873;BME280;22407;42.820;23.374;2023-12-20T05:19:47;95924.00;;;-4.00;100.00
31873;BME280;22407;42.820;23.374;2023-12-20T05:22:12;95916.84;;;-3.93;100.00
31873;BME280;22407;42.820;23.374;2023-12-20T05:24:38;95921.34;;;-3.94;100.00
31873;BME280;22407;42.820;23.374;2023-12-20T05:27:03;95910.78;;;-3.94;100.00
31873;BME280;22407;42.820;23.374;2023-12-20T05:29:29;95911.38;;;-3.92;100.00
31873;BME280;22407;42.820;23.374;2023-12-20T05:31:54;95900.47;;;-3.71;100.00
31873;BME280;22407;42.820;23.374;2023-12-20T05:34:20;95904.47;;;-3.62;100.00
31873;BME280;22407;42.820;23.374;2023-12-20T05:36:45;95901.41;;;-3.90;100.00
31873;BME280;22407;42.820;23.374;2023-12-20T05:39:11;95896.81;;;-3.70;100.00
31873;BME280;22407;42.820;23.374;2023-12-20T05:41:37;95896.47;;;-3.80;100.00
31873;BME280;22407;42.820;23.374;2023-12-20T05:44:03;95890.84;;;-3.90;100.00
31873;BME280;22407;42.820;23.374;2023-12-20T05:46:28;95887.66;;;-3.74;100.00
31873;BME280;22407;42.820;23.374;2023-12-20T05:48:54;95885.00;;;-3.67;100.00
31873;BME280;22407;42.820;23.374;2023-12-20T05:51:19;95886.91;;;-3.50;100.00
31873;BME280;22407;42.820;23.374;2023-12-20T05:53:45;95883.91;;;-3.91;100.00
31873;BME280;22407;42.820;23.374;2023-12-20T05:56:11;95887.91;;;-4.13;100.00
31873;BME280;22407;42.820;23.374;2023-12-20T05:58:40;95894.69;;;-4.29;100.00
31873;BME280;22407;42.820;23.374;2023-12-20T06:01:06;95887.94;;;-4.19;100.00
31873;BME280;22407;42.820;23.374;2023-12-20T06:03:33;95894.97;;;-4.07;100.00
31873;BME280;22407;42.820;23.374;2023-12-20T06:05:58;95888.53;;;-4.17;100.00
31873;BME280;22407;42.820;23.374;2023-12-20T06:08:25;95886.13;;;-4.25;100.00
31873;BME280;22407;42.820;23.374;2023-12-20T06:10:51;95895.81;;;-4.13;100.00
31873;BME280;22407;42.820;23.374;2023-12-20T06:13:17;95886.88;;;-4.12;100.00
31873;BME280;22407;42.820;23.374;2023-12-20T06:15:42;95895.41;;;-4.10;100.00
31873;BME280;22407;42.820;23.374;2023-12-20T06:18:08;95886.66;;;-4.10;100.00
31873;BME280;22407;42.820;23.374;2023-12-20T06:20:33;95888.41;;;-3.98;100.00
31873;BME280;22407;42.820;23.374;2023-12-20T06:22:59;95888.44;;;-4.04;100.00
31873;BME280;22407;42.820;23.374;2023-12-20T06:25:25;95872.75;;;-3.93;100.00
31873;BME280;22407;42.820;23.374;2023-12-20T06:27:51;95879.81;;;-3.87;100.00
31873;BME280;22407;42.820;23.374;2023-12-20T06:30:16;95881.03;;;-3.83;100.00
31873;BME280;22407;42.820;23.374;2023-12-20T06:32:42;95881.09;;;-3.96;100.00
31873;BME280;22407;42.820;23.374;2023-12-20T06:35:09;95875.88;;;-3.78;100.00
31873;BME280;22407;42.820;23.374;2023-12-20T06:37:34;95877.34;;;-3.82;100.00
31873;BME280;22407;42.820;23.374;2023-12-20T06:40:00;95883.63;;;-3.76;100.00
31873;BME280;22407;42.820;23.374;2023-12-20T06:42:26;95883.78;;;-3.71;100.00
31873;BME280;22407;42.820;23.374;2023-12-20T06:44:52;95876.75;;;-3.53;100.00
31873;BME280;22407;42.820;23.374;2023-12-20T06:47:17;95878.16;;;-3.50;100.00
31873;BME280;22407;42.820;23.374;2023-12-20T06:49:43;95889.94;;;-3.22;100.00
31873;BME280;22407;42.820;23.374;2023-12-20T06:52:09;95884.09;;;-3.31;100.00
31873;BME280;22407;42.820;23.374;2023-12-20T06:54:34;95870.22;;;-3.50;100.00
31873;BME280;22407;42.820;23.374;2023-12-20T06:57:00;95878.69;;;-3.18;100.00
31873;BME280;22407;42.820;23.374;2023-12-20T06:59:25;95868.16;;;-3.24;100.00
31873;BME280;22407;42.820;23.374;2023-12-20T07:01:51;95866.41;;;-3.30;100.00
31873;BME280;22407;42.820;23.374;2023-12-20T07:04:17;95860.66;;;-3.27;100.00
31873;BME280;22407;42.820;23.374;2023-12-20T07:06:50;95864.78;;;-3.31;100.00
31873;BME280;22407;42.820;23.374;2023-12-20T07:09:22;95865.84;;;-3.14;100.00
31873;BME280;22407;42.820;23.374;2023-12-20T07:11:48;95863.94;;;-3.07;100.00
31873;BME280;22407;42.820;23.374;2023-12-20T07:14:14;95861.81;;;-2.99;100.00
31873;BME280;22407;42.820;23.374;2023-12-20T07:16:39;95858.84;;;-2.66;100.00
31873;BME280;22407;42.820;23.374;2023-12-20T07:19:06;95860.75;;;-2.56;100.00
31873;BME280;22407;42.820;23.374;2023-12-20T07:21:31;95852.81;;;-2.56;100.00
31873;BME280;22407;42.820;23.374;2023-12-20T07:23:57;95847.56;;;-2.62;98.21
31873;BME280;22407;42.820;23.374;2023-12-20T07:26:23;95852.75;;;-2.67;98.32
31873;BME280;22407;42.820;23.374;2023-12-20T07:28:49;95836.47;;;-2.70;98.81
31873;BME280;22407;42.820;23.374;2023-12-20T07:31:15;95842.13;;;-2.67;97.79
31873;BME280;22407;42.820;23.374;2023-12-20T07:33:41;95820.50;;;-2.82;97.43
31873;BME280;22407;42.820;23.374;2023-12-20T07:36:07;95837.94;;;-2.74;98.38
31873;BME280;22407;42.820;23.374;2023-12-20T07:38:33;95848.88;;;-2.89;98.79
31873;BME280;22407;42.820;23.374;2023-12-20T07:40:59;95830.78;;;-2.74;98.95
31873;BME280;22407;42.820;23.374;2023-12-20T07:43:24;95823.81;;;-2.51;98.14
31873;BME280;22407;42.820;23.374;2023-12-20T07:45:50;95841.41;;;-2.56;98.10
31873;BME280;22407;42.820;23.374;2023-12-20T07:48:15;95829.84;;;-2.61;98.83
31873;BME280;22407;42.820;23.374;2023-12-20T07:50:41;95836.03;;;-2.67;98.80
31873;BME280;22407;42.820;23.374;2023-12-20T07:53:08;95827.34;;;-2.57;98.87
31873;BME280;22407;42.820;23.374;2023-12-20T07:55:33;95828.44;;;-2.46;98.61
31873;BME280;22407;42.820;23.374;2023-12-20T07:58:00;95834.63;;;-2.52;98.78
31873;BME280;22407;42.820;23.374;2023-12-20T08:00:26;95836.66;;;-2.54;99.83
31873;BME280;22407;42.820;23.374;2023-12-20T08:02:51;95843.97;;;-2.32;100.00
31873;BME280;22407;42.820;23.374;2023-12-20T08:05:17;95822.00;;;-2.21;99.58
31873;BME280;22407;42.820;23.374;2023-12-20T08:07:43;95826.16;;;-2.13;99.44
31873;BME280;22407;42.820;23.374;2023-12-20T08:10:08;95815.97;;;-2.28;98.93
31873;BME280;22407;42.820;23.374;2023-12-20T08:12:34;95828.38;;;-2.10;99.18
31873;BME280;22407;42.820;23.374;2023-12-20T08:15:00;95834.66;;;-2.23;99.93
31873;BME280;22407;42.820;23.374;2023-12-20T08:17:25;95828.03;;;-2.14;99.79
31873;BME280;22407;42.820;23.374;2023-12-20T08:19:51;95824.75;;;-2.27;100.00
31873;BME280;22407;42.820;23.374;2023-12-20T08:22:16;95805.91;;;-2.37;100.00
31873;BME280;22407;42.820;23.374;2023-12-20T08:24:42;95808.88;;;-2.45;100.00
31873;BME280;22407;42.820;23.374;2023-12-20T08:27:13;95812.00;;;-2.37;100.00
31873;BME280;22407;42.820;23.374;2023-12-20T08:29:39;95805.88;;;-1.90;100.00
31873;BME280;22407;42.820;23.374;2023-12-20T08:32:04;95802.94;;;-2.00;100.00
31873;BME280;22407;42.820;23.374;2023-12-20T08:34:30;95801.84;;;-1.81;100.00
31873;BME280;22407;42.820;23.374;2023-12-20T08:36:56;95801.56;;;-1.39;100.00
31873;BME280;22407;42.820;23.374;2023-12-20T08:39:21;95794.44;;;-1.27;99.29
31873;BME280;22407;42.820;23.374;2023-12-20T08:41:46;95792.47;;;-1.20;99.48
31873;BME280;22407;42.820;23.374;2023-12-20T08:44:12;95785.41;;;-1.60;99.23
31873;BME280;22407;42.820;23.374;2023-12-20T08:46:38;95761.69;;;-1.84;100.00
31873;BME280;22407;42.820;23.374;2023-12-20T08:49:03;95766.72;;;-1.42;100.00
31873;BME280;22407;42.820;23.374;2023-12-20T08:51:29;95765.34;;;-1.22;99.85
31873;BME280;22407;42.820;23.374;2023-12-20T08:53:55;95762.69;;;-1.10;99.84
31873;BME280;22407;42.820;23.374;2023-12-20T08:56:20;95760.53;;;-0.74;100.00
31873;BME280;22407;42.820;23.374;2023-12-20T08:58:46;95752.94;;;-0.71;99.11
31873;BME280;22407;42.820;23.374;2023-12-20T09:01:13;95747.63;;;-0.71;98.20
31873;BME280;22407;42.820;23.374;2023-12-20T09:03:39;95746.75;;;-0.60;96.50
31873;BME280;22407;42.820;23.374;2023-12-20T09:06:05;95742.00;;;-0.58;96.64
31873;BME280;22407;42.820;23.374;2023-12-20T09:08:30;95740.47;;;-0.82;96.90
31873;BME280;22407;42.820;23.374;2023-12-20T09:10:56;95734.28;;;-0.59;97.76
31873;BME280;22407;42.820;23.374;2023-12-20T09:13:22;95725.78;;;-0.45;96.09
31873;BME280;22407;42.820;23.374;2023-12-20T09:15:52;95702.13;;;-0.86;95.96
31873;BME280;22407;42.820;23.374;2023-12-20T09:18:17;95712.53;;;-0.95;97.12
31873;BME280;22407;42.820;23.374;2023-12-20T09:20:43;95708.03;;;-0.56;97.28
31873;BME280;22407;42.820;23.374;2023-12-20T09:23:08;95703.03;;;-0.41;96.82
31873;BME280;22407;42.820;23.374;2023-12-20T09:25:34;95693.31;;;-0.75;97.00
31873;BME280;22407;42.820;23.374;2023-12-20T09:27:59;95675.03;;;-0.71;97.37
31873;BME280;22407;42.820;23.374;2023-12-20T09:30:25;95674.78;;;-0.70;97.48
31873;BME280;22407;42.820;23.374;2023-12-20T09:32:50;95667.72;;;-0.64;97.27
31873;BME280;22407;42.820;23.374;2023-12-20T09:35:16;95654.03;;;-0.73;97.43
31873;BME280;22407;42.820;23.374;2023-12-20T09:37:41;95661.09;;;-0.50;97.34
31873;BME280;22407;42.820;23.374;2023-12-20T09:40:11;95647.16;;;-0.96;97.26
31873;BME280;22407;42.820;23.374;2023-12-20T09:45:47;95644.84;;;-0.93;98.47
31873;BME280;22407;42.820;23.374;2023-12-20T09:48:13;95646.25;;;-0.63;98.25
31873;BME280;22407;42.820;23.374;2023-12-20T09:50:43;95636.38;;;-0.51;97.98
31873;BME280;22407;42.820;23.374;2023-12-20T09:53:10;95641.06;;;-0.25;97.09
31873;BME280;22407;42.820;23.374;2023-12-20T09:55:38;95633.34;;;-0.10;95.62
31873;BME280;22407;42.820;23.374;2023-12-20T09:58:03;95633.28;;;0.01;94.84
31873;BME280;22407;42.820;23.374;2023-12-20T10:00:29;95623.09;;;0.15;93.73
31873;BME280;22407;42.820;23.374;2023-12-20T10:02:59;95619.97;;;-0.15;93.25
31873;BME280;22407;42.820;23.374;2023-12-20T10:05:29;95611.16;;;0.01;94.39
31873;BME280;22407;42.820;23.374;2023-12-20T10:07:55;95609.53;;;0.33;93.97
31873;BME280;22407;42.820;23.374;2023-12-20T10:10:21;95611.78;;;0.41;94.65
31873;BME280;22407;42.820;23.374;2023-12-20T10:13:12;95594.66;;;-0.01;94.64
31873;BME280;22407;42.820;23.374;2023-12-20T10:15:38;95598.38;;;0.14;94.91
31873;BME280;22407;42.820;23.374;2023-12-20T10:18:04;95593.34;;;0.18;94.70
31873;BME280;22407;42.820;23.374;2023-12-20T10:20:30;95589.38;;;0.58;93.91
31873;BME280;22407;42.820;23.374;2023-12-20T10:22:57;95579.00;;;0.57;93.74
31873;BME280;22407;42.820;23.374;2023-12-20T10:25:23;95588.31;;;0.38;94.70
31873;BME280;22407;42.820;23.374;2023-12-20T10:27:50;95573.88;;;0.34;94.90
31873;BME280;22407;42.820;23.374;2023-12-20T10:30:33;95581.44;;;0.42;94.79
31873;BME280;22407;42.820;23.374;2023-12-20T10:32:59;95581.16;;;0.22;95.92
31873;BME280;22407;42.820;23.374;2023-12-20T10:35:25;95571.44;;;-0.38;97.06
31873;BME280;22407;42.820;23.374;2023-12-20T10:37:55;95569.25;;;-0.58;98.16
31873;BME280;22407;42.820;23.374;2023-12-20T10:40:22;95568.59;;;-0.65;98.99
31873;BME280;22407;42.820;23.374;2023-12-20T10:42:48;95569.09;;;-0.02;98.45
31873;BME280;22407;42.820;23.374;2023-12-20T10:45:16;95548.31;;;0.33;97.07
31873;BME280;22407;42.820;23.374;2023-12-20T10:47:46;95542.06;;;0.22;96.27
31873;BME280;22407;42.820;23.374;2023-12-20T10:50:12;95542.41;;;0.09;95.98
31873;BME280;22407;42.820;23.374;2023-12-20T10:52:38;95536.94;;;-0.01;96.60
31873;BME280;22407;42.820;23.374;2023-12-20T10:55:05;95520.97;;;0.59;96.33
31873;BME280;22407;42.820;23.374;2023-12-20T10:57:31;95528.34;;;0.73;95.42
31873;BME280;22407;42.820;23.374;2023-12-20T11:00:01;95525.50;;;0.80;94.21
31873;BME280;22407;42.820;23.374;2023-12-20T11:02:36;95513.34;;;0.88;92.96
31873;BME280;22407;42.820;23.374;2023-12-20T11:05:18;95518.31;;;1.06;93.48
31873;BME280;22407;42.820;23.374;2023-12-20T11:07:52;95506.69;;;1.17;92.70
31873;BME280;22407;42.820;23.374;2023-12-20T11:10:26;95490.06;;;1.37;91.32
31873;BME280;22407;42.820;23.374;2023-12-20T11:13:12;95493.16;;;1.55;91.04
31873;BME280;22407;42.820;23.374;2023-12-20T11:15:42;95486.22;;;1.54;90.07
31873;BME280;22407;42.820;23.374;2023-12-20T11:18:08;95475.44;;;1.39;89.25
31873;BME280;22407;42.820;23.374;2023-12-20T11:20:38;95476.56;;;0.90;90.89
31873;BME280;22407;42.820;23.374;2023-12-20T11:23:04;95478.72;;;0.93;92.57
31873;BME280;22407;42.820;23.374;2023-12-20T11:25:56;95459.69;;;0.80;93.91
31873;BME280;22407;42.820;23.374;2023-12-20T11:28:24;95458.78;;;0.96;93.33
31873;BME280;22407;42.820;23.374;2023-12-20T11:30:51;95464.63;;;0.93;92.98
31873;BME280;22407;42.820;23.374;2023-12-20T11:33:21;95458.47;;;0.66;94.72
31873;BME280;22407;42.820;23.374;2023-12-20T11:35:47;95456.16;;;1.01;94.96
31873;BME280;22407;42.820;23.374;2023-12-20T11:38:13;95446.28;;;1.01;95.37
31873;BME280;22407;42.820;23.374;2023-12-20T11:40:41;95439.22;;;1.12;94.66
31873;BME280;22407;42.820;23.374;2023-12-20T11:43:07;95438.13;;;1.39;93.25
31873;BME280;22407;42.820;23.374;2023-12-20T11:45:33;95428.84;;;1.15;92.84
31873;BME280;22407;42.820;23.374;2023-12-20T11:48:01;95425.22;;;1.26;92.94
31873;BME280;22407;42.820;23.374;2023-12-20T11:50:27;95421.63;;;0.84;93.74
31873;BME280;22407;42.820;23.374;2023-12-20T11:52:55;95405.19;;;0.92;94.41
31873;BME280;22407;42.820;23.374;2023-12-20T11:55:24;95404.09;;;1.20;95.25
31873;BME280;22407;42.820;23.374;2023-12-20T11:57:50;95396.72;;;1.00;93.97
31873;BME280;22407;42.820;23.374;2023-12-20T12:00:17;95396.31;;;0.56;96.25
31873;BME280;22407;42.820;23.374;2023-12-20T12:02:58;95389.84;;;0.73;96.41
31873;BME280;22407;42.820;23.374;2023-12-20T12:05:24;95384.91;;;0.86;96.59
31873;BME280;22407;42.820;23.374;2023-12-20T12:07:51;95368.16;;;1.27;94.99
31873;BME280;22407;42.820;23.374;2023-12-20T12:10:16;95367.72;;;1.40;93.03
31873;BME280;22407;42.820;23.374;2023-12-20T12:12:42;95366.66;;;1.41;92.85
31873;BME280;22407;42.820;23.374;2023-12-20T12:15:07;95357.56;;;1.37;93.84
31873;BME280;22407;42.820;23.374;2023-12-20T12:17:34;95360.75;;;1.34;93.72
31873;BME280;22407;42.820;23.374;2023-12-20T12:20:04;95354.84;;;1.27;93.79
31873;BME280;22407;42.820;23.374;2023-12-20T12:22:30;95358.78;;;1.20;94.44
31873;BME280;22407;42.820;23.374;2023-12-20T12:24:59;95350.44;;;1.48;94.11
31873;BME280;22407;42.820;23.374;2023-12-20T12:27:27;95357.03;;;1.40;93.89
31873;BME280;22407;42.820;23.374;2023-12-20T12:30:03;95352.66;;;1.61;92.23
31873;BME280;22407;42.820;23.374;2023-12-20T12:32:29;95344.88;;;1.54;91.71
31873;BME280;22407;42.820;23.374;2023-12-20T12:34:55;95358.47;;;1.53;93.12
31873;BME280;22407;42.820;23.374;2023-12-20T12:37:20;95357.88;;;1.04;93.28
31873;BME280;22407;42.820;23.374;2023-12-20T12:39:49;95354.09;;;1.00;94.06
31873;BME280;22407;42.820;23.374;2023-12-20T12:42:14;95347.91;;;1.26;94.23
31873;BME280;22407;42.820;23.374;2023-12-20T12:44:40;95350.59;;;1.31;94.26
31873;BME280;22407;42.820;23.374;2023-12-20T12:47:05;95353.91;;;1.48;94.58
31873;BME280;22407;42.820;23.374;2023-12-20T12:49:32;95346.72;;;1.12;94.21